Plains, Montana
Current Conditions -  °F | °C
As of 2:53 AM on Monday 26 Jan 2015 (Local Time) from KMLP Reporting Station
Clear Clear  
Wind Chill: 37°   Ceiling: Unl
Heat Index: 42°   Visibility: 10mi
Dew Point: 27°   Wind: 9mph
Humidity: 55%   Direction: 190°S
Pressure: 30.19"   Gusts: NA
Location:  47.46°N, 114.88°W
Report Text: KMLP 260953Z AUTO 19008KT 10SM CLR 06/M03 A3019 RMK AO2 SLP183 T00561028
Loading
Personal Weather Stations






























Interactive Weather Map New forecast layout! Learn more

10-Day Weather Forecast

Advertisements
Track Severe Weather on mobile